createdAt,value
2022-11-27T00:01:35.611Z,6.01
2022-11-27T00:04:03.942Z,5.01
2022-11-27T00:06:33.019Z,4.30
2022-11-27T00:09:03.721Z,3.80
2022-11-27T00:11:32.243Z,3.42
2022-11-27T00:14:00.918Z,4.18
2022-11-27T00:16:30.090Z,6.87
2022-11-27T00:18:58.567Z,8.69
2022-11-27T00:21:29.040Z,8.98
2022-11-27T00:23:58.879Z,7.50
2022-11-27T00:26:27.101Z,6.14
2022-11-27T00:28:55.727Z,5.14
2022-11-27T00:31:28.735Z,4.44
2022-11-27T00:33:58.843Z,3.88
2022-11-27T00:36:28.586Z,3.43
2022-11-27T00:38:56.368Z,3.99
2022-11-27T00:41:26.445Z,6.64
2022-11-27T00:43:55.539Z,8.51
2022-11-27T00:46:28.832Z,8.91
2022-11-27T00:49:01.951Z,7.48
2022-11-27T00:51:30.389Z,6.13
2022-11-27T00:53:58.666Z,5.21
2022-11-27T00:56:32.422Z,4.55
2022-11-27T00:59:00.913Z,4.01
2022-11-27T01:01:31.680Z,3.61
2022-11-27T01:04:01.315Z,3.97
2022-11-27T01:06:30.335Z,6.33
2022-11-27T01:08:58.763Z,7.94
2022-11-27T01:11:30.487Z,8.27
2022-11-27T01:14:01.318Z,7.06
2022-11-27T01:16:30.973Z,5.88
2022-11-27T01:19:00.810Z,5.04
2022-11-27T01:21:32.475Z,4.44
2022-11-27T01:24:01.886Z,3.96
2022-11-27T01:26:30.199Z,3.55
2022-11-27T01:28:59.123Z,3.88
2022-11-27T01:31:30.218Z,5.90
2022-11-27T01:34:01.927Z,8.27
2022-11-27T01:36:30.847Z,9.18
2022-11-27T01:38:59.676Z,7.80
2022-11-27T01:41:32.966Z,6.46
2022-11-27T01:44:23.512Z,5.48
2022-11-27T01:47:00.409Z,4.69
2022-11-27T01:49:38.507Z,4.16
2022-11-27T01:52:13.671Z,3.73
2022-11-27T01:54:52.222Z,4.49
2022-11-27T01:57:26.445Z,7.63
2022-11-27T01:59:57.849Z,9.46
2022-11-27T02:02:25.913Z,8.84
2022-11-27T02:04:55.106Z,7.25
2022-11-27T02:07:22.898Z,6.04
2022-11-27T02:09:51.225Z,5.21
2022-11-27T02:12:48.280Z,4.63
2022-11-27T02:15:47.420Z,4.06
2022-11-27T02:19:03.182Z,3.57
2022-11-27T02:21:51.863Z,5.20
2022-11-27T02:24:49.044Z,8.53
2022-11-27T02:27:32.066Z,9.48
2022-11-27T02:30:01.734Z,7.85
2022-11-27T02:32:42.010Z,6.50
2022-11-27T02:35:17.657Z,5.41
2022-11-27T02:37:53.383Z,4.67
2022-11-27T02:40:38.215Z,4.11
2022-11-27T02:43:12.171Z,3.66
2022-11-27T02:45:43.860Z,4.32
2022-11-27T02:48:15.275Z,7.21
2022-11-27T02:50:45.859Z,9.05
2022-11-27T02:53:25.884Z,9.02
2022-11-27T02:55:53.665Z,7.44
2022-11-27T02:58:23.542Z,6.25
2022-11-27T03:00:54.839Z,5.40
2022-11-27T03:03:26.729Z,4.77
2022-11-27T03:06:01.058Z,4.30
2022-11-27T03:08:30.859Z,3.90
2022-11-27T03:11:02.823Z,4.58
2022-11-27T03:13:38.101Z,7.49
2022-11-27T03:16:31.227Z,9.36
2022-11-27T03:19:03.440Z,8.91
2022-11-27T03:21:39.150Z,7.42
2022-11-27T03:27:39.911Z,5.31
2022-11-27T03:30:11.760Z,4.77
2022-11-27T03:32:39.866Z,4.35
2022-11-27T03:35:11.686Z,4.00
2022-11-27T03:37:39.658Z,4.59
2022-11-27T03:40:08.694Z,7.20
2022-11-27T03:43:02.737Z,8.92
2022-11-27T03:45:45.515Z,8.37
2022-11-27T03:48:31.388Z,6.83
2022-11-27T03:50:58.991Z,5.64
2022-11-27T03:54:10.843Z,4.89
2022-11-27T03:57:00.856Z,4.16
2022-11-27T03:59:32.945Z,3.69
2022-11-27T04:02:00.699Z,4.09
2022-11-27T04:04:28.539Z,6.31
2022-11-27T04:06:56.398Z,7.88
2022-11-27T04:09:25.522Z,8.46
2022-11-27T04:11:53.291Z,7.74
2022-11-27T04:14:21.006Z,6.52
2022-11-27T04:16:48.710Z,5.60
2022-11-27T04:19:16.393Z,4.90
2022-11-27T04:21:44.053Z,4.36
2022-11-27T04:24:11.737Z,3.94
2022-11-27T04:26:39.440Z,4.09
2022-11-27T04:29:07.103Z,5.53
2022-11-27T04:31:34.885Z,7.56
2022-11-27T04:34:02.682Z,8.62
2022-11-27T04:36:32.555Z,8.77
2022-11-27T04:39:03.834Z,7.42
2022-11-27T04:41:31.548Z,6.22
2022-11-27T04:43:59.243Z,5.36
2022-11-27T04:46:26.965Z,4.74
2022-11-27T04:48:54.742Z,4.28
2022-11-27T04:51:22.647Z,3.93
2022-11-27T04:53:51.005Z,4.20
2022-11-27T04:56:18.703Z,5.73
2022-11-27T04:58:46.449Z,7.14
2022-11-27T05:01:14.241Z,8.03
2022-11-27T05:03:42.062Z,8.44
2022-11-27T05:06:09.903Z,7.66
2022-11-27T05:08:37.587Z,6.53
2022-11-27T05:11:07.836Z,5.69
2022-11-27T05:13:35.692Z,5.05
2022-11-27T05:16:04.214Z,4.58
2022-11-27T05:18:32.233Z,4.18
2022-11-27T05:21:02.424Z,4.21
2022-11-27T05:23:30.956Z,5.21
2022-11-27T05:25:58.787Z,6.41
2022-11-27T05:28:27.275Z,7.21
2022-11-27T05:30:55.164Z,7.75
2022-11-27T05:33:23.131Z,8.32
2022-11-27T05:35:50.948Z,8.49
2022-11-27T05:38:18.727Z,7.41
2022-11-27T05:40:46.417Z,6.34
2022-11-27T05:43:14.207Z,5.58
2022-11-27T05:45:41.959Z,4.99
2022-11-27T05:48:09.854Z,4.49
2022-11-27T05:50:37.808Z,4.70
2022-11-27T05:53:05.955Z,6.51
2022-11-27T05:55:33.641Z,7.20
2022-11-27T05:58:01.316Z,7.53
2022-11-27T06:00:29.096Z,7.64
2022-11-27T06:02:56.881Z,7.43
2022-11-27T06:05:24.701Z,6.48
2022-11-27T06:07:52.521Z,5.65
2022-11-27T06:10:20.632Z,5.05
2022-11-27T06:12:48.314Z,4.57
2022-11-27T06:15:16.151Z,4.19
2022-11-27T06:17:43.823Z,4.19
2022-11-27T06:20:11.704Z,6.22
2022-11-27T06:22:39.484Z,7.93
2022-11-27T06:25:07.549Z,8.95
2022-11-27T06:27:36.736Z,9.00
2022-11-27T06:30:06.031Z,7.69
2022-11-27T06:32:33.774Z,6.56
2022-11-27T06:35:01.615Z,5.75
2022-11-27T06:37:30.231Z,5.17
2022-11-27T06:39:58.037Z,4.71
2022-11-27T06:42:28.408Z,4.34
2022-11-27T06:44:56.664Z,4.61
2022-11-27T06:47:24.583Z,6.07
2022-11-27T06:49:52.239Z,7.82
2022-11-27T06:52:20.031Z,8.33
2022-11-27T06:54:48.111Z,8.49
2022-11-27T06:57:16.475Z,8.53
2022-11-27T06:59:44.127Z,7.51
2022-11-27T07:02:15.090Z,6.54
2022-11-27T07:04:43.088Z,5.82
2022-11-27T07:07:11.032Z,5.30
2022-11-27T07:09:38.871Z,4.88
2022-11-27T07:12:08.172Z,5.23
2022-11-27T07:14:35.855Z,7.98
2022-11-27T07:17:03.640Z,9.97
2022-11-27T07:19:31.320Z,9.95
2022-11-27T07:21:59.037Z,8.51
2022-11-27T07:24:26.780Z,7.24
2022-11-27T07:26:54.512Z,6.33
2022-11-27T07:29:22.200Z,5.66
2022-11-27T07:31:51.496Z,5.15
2022-11-27T07:34:21.677Z,4.74
2022-11-27T07:36:49.715Z,4.40
2022-11-27T07:39:28.741Z,4.91
2022-11-27T07:42:30.950Z,7.77
2022-11-27T07:44:55.829Z,9.29
2022-11-27T07:47:23.528Z,9.77
2022-11-27T07:49:51.354Z,8.55
2022-11-27T07:52:19.001Z,7.28
2022-11-27T07:54:46.662Z,6.38
2022-11-27T07:57:14.405Z,5.73
2022-11-27T07:59:47.154Z,5.27
2022-11-27T08:02:15.471Z,4.87
2022-11-27T08:04:43.722Z,4.57
2022-11-27T08:07:11.888Z,5.12
2022-11-27T08:09:40.038Z,7.28
2022-11-27T08:12:07.864Z,9.09
2022-11-27T08:14:35.591Z,10.46
2022-11-27T08:17:03.393Z,10.37
2022-11-27T08:19:31.128Z,8.88
2022-11-27T08:21:58.943Z,7.61
2022-11-27T08:24:26.582Z,6.71
2022-11-27T08:26:54.413Z,6.07
2022-11-27T08:29:22.223Z,5.55
2022-11-27T08:31:50.040Z,5.14
2022-11-27T08:34:17.865Z,4.81
2022-11-27T08:36:45.510Z,4.53
2022-11-27T08:39:14.298Z,5.05
2022-11-27T08:41:41.979Z,7.75
2022-11-27T08:44:09.740Z,9.10
2022-11-27T08:46:38.842Z,9.42
2022-11-27T08:49:06.577Z,9.06
2022-11-27T08:51:34.451Z,7.89
2022-11-27T08:54:02.268Z,6.92
2022-11-27T08:56:29.950Z,6.22
2022-11-27T08:58:57.679Z,5.70
2022-11-27T09:01:28.951Z,5.32
2022-11-27T09:03:57.053Z,4.97
2022-11-27T09:06:30.340Z,5.19
2022-11-27T09:09:02.871Z,7.14
2022-11-27T09:11:31.992Z,9.04
2022-11-27T09:14:01.894Z,10.00
2022-11-27T09:16:30.686Z,9.89
2022-11-27T09:18:58.928Z,8.60
2022-11-27T09:21:28.339Z,7.53
2022-11-27T09:23:58.443Z,6.80
2022-11-27T09:26:27.847Z,6.31
2022-11-27T09:28:57.442Z,5.89
2022-11-27T09:31:26.427Z,5.52
2022-11-27T09:33:54.396Z,5.23
2022-11-27T09:36:24.432Z,5.72
2022-11-27T09:38:52.694Z,7.75
2022-11-27T09:41:26.600Z,9.36
2022-11-27T09:44:02.946Z,10.30
2022-11-27T09:46:38.774Z,9.77
2022-11-27T09:49:35.924Z,8.53
2022-11-27T09:52:14.757Z,7.49
2022-11-27T09:55:05.725Z,6.85
2022-11-27T09:57:37.673Z,6.37
2022-11-27T10:00:13.271Z,6.04
2022-11-27T10:02:43.152Z,5.77
2022-11-27T10:05:44.588Z,6.11
2022-11-27T10:09:02.086Z,8.41
2022-11-27T10:11:32.100Z,9.55
2022-11-27T10:14:08.979Z,9.72
2022-11-27T10:16:54.210Z,8.86
2022-11-27T10:19:27.777Z,7.88
2022-11-27T10:22:02.916Z,7.24
2022-11-27T10:24:39.953Z,6.73
2022-11-27T10:27:20.468Z,6.35
2022-11-27T10:29:54.440Z,6.08
2022-11-27T10:32:54.261Z,6.31
2022-11-27T10:35:24.848Z,7.58
2022-11-27T10:38:11.120Z,9.48
2022-11-27T10:40:45.632Z,10.74
2022-11-27T10:43:19.770Z,10.78
2022-11-27T10:46:02.279Z,9.59
2022-11-27T10:48:30.404Z,8.49
2022-11-27T10:50:59.570Z,7.85
2022-11-27T10:53:32.093Z,7.40
2022-11-27T10:56:12.013Z,7.02
2022-11-27T10:59:05.552Z,6.68
2022-11-27T11:01:48.637Z,6.38
2022-11-27T11:04:37.610Z,6.77
2022-11-27T11:07:25.517Z,8.51
2022-11-27T11:09:54.615Z,9.47
2022-11-27T11:12:23.679Z,9.80
2022-11-27T11:14:56.872Z,10.04
2022-11-27T11:17:31.387Z,10.46
2022-11-27T11:19:59.278Z,10.38
2022-11-27T11:22:28.324Z,9.41
2022-11-27T11:24:56.611Z,8.55
2022-11-27T11:27:30.367Z,7.89
2022-11-27T11:30:00.647Z,7.39
2022-11-27T11:32:40.249Z,6.99
2022-11-27T11:35:30.451Z,6.66
2022-11-27T11:37:59.282Z,6.93
2022-11-27T11:40:32.911Z,7.79
2022-11-27T11:43:10.116Z,9.75
2022-11-27T11:45:48.729Z,11.68
2022-11-27T11:48:25.506Z,12.19
2022-11-27T11:50:59.153Z,10.81
2022-11-27T11:53:40.455Z,9.62
2022-11-27T11:56:44.863Z,8.78
2022-11-27T11:59:31.190Z,8.02
2022-11-27T12:02:18.564Z,7.46
2022-11-27T12:05:15.698Z,7.05
2022-11-27T12:07:52.002Z,6.65
2022-11-27T12:10:32.629Z,6.39
2022-11-27T12:13:03.234Z,7.32
2022-11-27T12:16:01.080Z,9.96
2022-11-27T12:18:45.521Z,11.31
2022-11-27T12:21:15.191Z,10.94
2022-11-27T12:23:51.195Z,9.71
2022-11-27T12:26:37.239Z,8.69
2022-11-27T12:29:23.985Z,8.00
2022-11-27T12:32:17.099Z,7.48
2022-11-27T12:35:11.482Z,7.05
2022-11-27T12:37:57.734Z,6.69
2022-11-27T12:40:37.654Z,6.39
2022-11-27T12:43:17.202Z,6.18
2022-11-27T12:46:01.618Z,6.92
2022-11-27T12:48:39.429Z,9.94
2022-11-27T12:51:12.309Z,11.11
2022-11-27T12:53:45.484Z,10.83
2022-11-27T12:56:20.951Z,9.70
2022-11-27T12:58:53.233Z,8.78
2022-11-27T13:01:27.763Z,8.13
2022-11-27T13:04:10.990Z,7.67
2022-11-27T13:06:53.218Z,7.28
2022-11-27T13:09:44.174Z,6.94
2022-11-27T13:12:20.396Z,6.66
2022-11-27T13:14:56.681Z,6.46
2022-11-27T13:17:37.226Z,7.12
2022-11-27T13:20:14.317Z,8.87
2022-11-27T13:22:42.586Z,10.29
2022-11-27T13:25:14.672Z,11.25
2022-11-27T13:27:47.161Z,11.22
2022-11-27T13:30:24.943Z,10.10
2022-11-27T13:32:57.626Z,9.10
2022-11-27T13:35:39.949Z,8.39
2022-11-27T13:38:19.482Z,7.78
2022-11-27T13:40:52.036Z,7.34
2022-11-27T13:43:29.051Z,6.95
2022-11-27T13:46:06.120Z,6.62
2022-11-27T13:48:38.539Z,6.95
2022-11-27T13:51:09.398Z,8.68
2022-11-27T13:53:42.320Z,10.03
2022-11-27T13:56:10.113Z,10.50
2022-11-27T13:58:40.663Z,10.20
2022-11-27T14:01:21.027Z,9.17
2022-11-27T14:03:49.701Z,8.29
2022-11-27T14:06:22.019Z,7.70
2022-11-27T14:08:59.370Z,7.22
2022-11-27T14:11:41.186Z,6.87
2022-11-27T14:14:19.978Z,7.28
2022-11-27T14:17:05.022Z,9.00
2022-11-27T14:19:44.062Z,10.07
2022-11-27T14:22:17.225Z,11.68
2022-11-27T14:28:36.263Z,9.68
2022-11-27T14:31:03.524Z,8.80
2022-11-27T14:44:38.959Z,6.31
2022-11-27T14:47:08.372Z,6.84
2022-11-27T14:49:36.284Z,8.76
2022-11-27T14:52:12.810Z,10.01
2022-11-27T14:54:41.849Z,11.03
2022-11-27T14:57:18.300Z,10.24
2022-11-27T14:59:46.030Z,8.83
2022-11-27T15:02:13.773Z,7.81
2022-11-27T15:04:43.359Z,7.03
2022-11-27T15:07:17.370Z,6.47
2022-11-27T15:09:48.839Z,6.06
2022-11-27T15:12:36.689Z,5.72
2022-11-27T15:15:08.954Z,6.87
2022-11-27T15:17:39.526Z,9.41
2022-11-27T15:20:16.825Z,10.81
2022-11-27T15:22:53.224Z,9.92
2022-11-27T15:25:34.733Z,8.49
2022-11-27T15:28:02.756Z,7.43
2022-11-27T15:30:30.703Z,6.75
2022-11-27T15:32:58.579Z,6.24
2022-11-27T15:35:29.244Z,5.81
2022-11-27T15:37:58.305Z,6.03
2022-11-27T15:40:36.902Z,8.71
2022-11-27T15:43:16.121Z,10.64
2022-11-27T15:45:44.648Z,10.62
2022-11-27T15:48:17.939Z,9.20
2022-11-27T15:50:51.408Z,7.89
2022-11-27T15:53:19.617Z,6.96
2022-11-27T15:55:47.489Z,6.33
2022-11-27T15:58:17.579Z,5.86
2022-11-27T16:00:45.366Z,6.46
2022-11-27T16:03:14.437Z,8.41
2022-11-27T16:05:42.133Z,9.26
2022-11-27T16:08:12.892Z,9.67
2022-11-27T16:10:42.142Z,9.72
2022-11-27T16:13:09.906Z,8.63
2022-11-27T16:15:37.721Z,7.61
2022-11-27T16:18:07.150Z,6.85
2022-11-27T16:20:35.045Z,6.29
2022-11-27T16:23:02.766Z,6.25
2022-11-27T16:25:30.526Z,7.49
2022-11-27T16:28:02.829Z,8.22
2022-11-27T16:30:31.931Z,9.46
2022-11-27T16:32:59.882Z,10.07
2022-11-27T16:35:27.651Z,9.27
2022-11-27T16:37:56.091Z,8.12
2022-11-27T16:40:23.830Z,7.27
2022-11-27T16:42:51.758Z,6.67
2022-11-27T16:45:19.804Z,6.19
2022-11-27T16:47:48.533Z,6.39
2022-11-27T16:50:17.780Z,7.82
2022-11-27T16:52:48.947Z,8.73
2022-11-27T16:55:21.696Z,9.02
2022-11-27T16:57:50.097Z,9.16
2022-11-27T17:00:18.501Z,9.30
2022-11-27T17:02:46.367Z,9.12
2022-11-27T17:05:14.201Z,8.21
2022-11-27T17:07:42.658Z,7.34
2022-11-27T17:10:10.770Z,6.71
2022-11-27T17:12:38.530Z,6.22
2022-11-27T17:15:06.725Z,6.17
2022-11-27T17:17:39.859Z,7.00
2022-11-27T17:20:08.610Z,7.68
2022-11-27T17:22:36.944Z,8.49
2022-11-27T17:25:05.403Z,9.34
2022-11-27T17:27:34.240Z,9.90
2022-11-27T17:30:03.534Z,9.85
2022-11-27T17:32:31.957Z,8.81
2022-11-27T17:34:59.648Z,7.84
2022-11-27T17:37:27.600Z,7.13
2022-11-27T17:39:55.359Z,6.61
2022-11-27T17:42:23.183Z,6.19
2022-11-27T17:44:51.590Z,6.55
2022-11-27T17:47:19.315Z,8.36
2022-11-27T17:49:47.110Z,9.50
2022-11-27T17:52:14.874Z,10.08
2022-11-27T17:54:43.310Z,10.07
2022-11-27T17:57:11.020Z,8.88
2022-11-27T17:59:40.178Z,7.86
2022-11-27T18:02:11.245Z,7.12
2022-11-27T18:04:39.038Z,6.58
2022-11-27T18:07:06.796Z,6.55
2022-11-27T18:09:34.464Z,7.72
2022-11-27T18:12:06.294Z,8.74
2022-11-27T18:14:34.686Z,9.33
2022-11-27T18:17:05.018Z,9.67
2022-11-27T18:19:32.927Z,10.91
2022-11-27T18:22:00.700Z,10.95
2022-11-27T18:27:58.145Z,8.16
2022-11-27T18:30:25.871Z,7.47
2022-11-27T18:32:53.610Z,6.93
2022-11-27T18:35:24.015Z,6.47
2022-11-27T18:37:51.675Z,6.07
2022-11-27T18:40:19.473Z,6.85
2022-11-27T18:42:47.176Z,9.70
2022-11-27T18:45:31.820Z,11.34
2022-11-27T18:48:00.977Z,10.47
2022-11-27T18:50:29.967Z,9.05
2022-11-27T18:52:58.037Z,7.95
2022-11-27T18:55:25.974Z,7.20
2022-11-27T18:57:54.670Z,6.61
2022-11-27T19:00:22.446Z,6.14
2022-11-27T19:02:50.301Z,6.62
2022-11-27T19:05:18.096Z,9.48
2022-11-27T19:07:45.869Z,11.48
2022-11-27T19:10:13.955Z,10.98
2022-11-27T19:12:41.738Z,9.40
2022-11-27T19:15:09.885Z,8.14
2022-11-27T19:17:39.106Z,7.17
2022-11-27T19:20:08.244Z,6.44
2022-11-27T19:22:38.314Z,5.90
2022-11-27T19:28:39.585Z,6.80
2022-11-27T19:31:10.286Z,8.48
2022-11-27T19:33:39.980Z,10.18
2022-11-27T19:36:11.267Z,10.56
2022-11-27T19:38:41.215Z,9.19
2022-11-27T19:41:12.446Z,7.68
2022-11-27T19:43:40.620Z,6.60
2022-11-27T19:46:17.942Z,5.83
2022-11-27T19:48:46.532Z,5.82
2022-11-27T19:51:15.471Z,6.86
2022-11-27T19:53:43.783Z,9.20
2022-11-27T19:56:12.178Z,10.68
2022-11-27T19:58:41.093Z,10.14
2022-11-27T20:01:14.245Z,8.58
2022-11-27T20:03:43.117Z,7.31
2022-11-27T20:06:14.794Z,6.50
2022-11-27T20:08:44.109Z,5.85
2022-11-27T20:11:15.429Z,5.94
2022-11-27T20:13:43.434Z,7.66
2022-11-27T20:16:14.589Z,9.47
2022-11-27T20:18:42.986Z,10.33
2022-11-27T20:21:14.641Z,9.67
2022-11-27T20:23:43.770Z,8.26
2022-11-27T20:26:15.143Z,7.22
2022-11-27T20:28:43.641Z,6.50
2022-11-27T20:31:18.255Z,6.01
2022-11-27T20:33:46.292Z,6.33
2022-11-27T20:36:17.131Z,8.19
2022-11-27T20:38:45.450Z,9.67
2022-11-27T20:41:17.485Z,10.09
2022-11-27T20:43:45.911Z,9.13
2022-11-27T20:46:15.594Z,8.00
2022-11-27T20:48:47.261Z,7.17
2022-11-27T20:51:18.585Z,6.56
2022-11-27T20:53:47.773Z,6.09
2022-11-27T20:56:17.982Z,6.29
2022-11-27T20:58:47.946Z,7.82
2022-11-27T21:01:29.642Z,9.01
2022-11-27T21:04:00.562Z,9.71
2022-11-27T21:06:31.962Z,9.86
2022-11-27T21:09:02.215Z,8.75
2022-11-27T21:11:32.604Z,7.55
2022-11-27T21:14:03.529Z,6.61
2022-11-27T21:16:34.548Z,5.91
2022-11-27T21:19:05.784Z,5.39
2022-11-27T21:21:34.496Z,5.36
2022-11-27T21:24:04.696Z,6.72
2022-11-27T21:26:33.239Z,8.22
2022-11-27T21:29:01.091Z,9.13
2022-11-27T21:31:35.949Z,9.80
2022-11-27T21:34:07.140Z,9.92
2022-11-27T21:36:36.761Z,8.64
2022-11-27T21:39:08.196Z,7.43
2022-11-27T21:41:36.692Z,6.51
2022-11-27T21:44:05.772Z,5.85
2022-11-27T21:46:33.875Z,5.92
2022-11-27T21:49:05.662Z,7.35
2022-11-27T21:51:33.643Z,8.25
2022-11-27T21:54:07.488Z,9.13
2022-11-27T21:56:38.187Z,9.67
2022-11-27T21:59:08.235Z,9.56
2022-11-27T22:01:36.346Z,8.41
2022-11-27T22:04:04.586Z,7.37
2022-11-27T22:06:38.360Z,6.60
2022-11-27T22:09:11.893Z,6.01
2022-11-27T22:11:44.499Z,5.94
2022-11-27T22:14:14.063Z,6.87
2022-11-27T22:16:45.211Z,7.76
2022-11-27T22:19:14.801Z,8.36
2022-11-27T22:21:44.444Z,8.66
2022-11-27T22:27:40.482Z,9.20
2022-11-27T22:30:11.134Z,8.16
2022-11-27T22:32:39.233Z,7.20
2022-11-27T22:35:07.516Z,6.48
2022-11-27T22:37:35.478Z,5.89
2022-11-27T22:40:03.928Z,5.81
2022-11-27T22:42:31.856Z,6.80
2022-11-27T22:44:59.570Z,7.56
2022-11-27T22:47:27.317Z,8.00
2022-11-27T22:49:55.068Z,8.26
2022-11-27T22:52:24.160Z,8.42
2022-11-27T22:54:51.952Z,8.88
2022-11-27T22:57:20.292Z,9.31
2022-11-27T22:59:49.181Z,9.50
2022-11-27T23:02:16.967Z,9.67
2022-11-27T23:04:45.279Z,8.59
2022-11-27T23:07:14.057Z,7.34
2022-11-27T23:09:42.163Z,6.39
2022-11-27T23:12:09.911Z,5.70
2022-11-27T23:14:38.107Z,5.82
2022-11-27T23:17:05.981Z,7.19
2022-11-27T23:19:33.704Z,7.97
2022-11-27T23:22:01.676Z,8.13
2022-11-27T23:24:29.401Z,8.24
2022-11-27T23:26:57.159Z,8.61
2022-11-27T23:29:25.263Z,8.94
2022-11-27T23:31:53.026Z,9.04
2022-11-27T23:34:20.766Z,9.24
2022-11-27T23:36:48.457Z,8.75
2022-11-27T23:39:17.491Z,7.58
2022-11-27T23:41:46.265Z,6.60
2022-11-27T23:44:15.032Z,5.87
2022-11-27T23:46:42.755Z,5.72
2022-11-27T23:49:10.433Z,6.71
2022-11-27T23:51:38.117Z,7.65
2022-11-27T23:54:09.180Z,8.14
2022-11-27T23:56:38.231Z,8.05
2022-11-27T23:59:06.008Z,8.25
